• Join FlightAware (Why Join?)
  • Login
  • US Flag 
07:45AM EST


 

Airport Tracker/Info


-or-


 

Live Flight TrackerFlight Track Log ✈ SWA841 ✈ 13-May-2013 ✈ KLAX - KBWI

Flight Track Log - Related Links

Times and Time Zones

All times are in EDT time to prevent confusion due to time zone crossing. See the SWA841 flight status page for this flight to view local times or setup timezone preferences in your user account.

Time Position Orientation Groundspeed Altitude Reporting Facility
EDT Latitude Longitude Course Direction KTS MPH feet Rate Location/Type
04:16PM 33.9447 -118.4697 263° West 167 192 1,800  Level Los Angeles Center
04:17PM 33.9361 -118.5486 263° West 228 262 3,300 1,800 Climbing Los Angeles Center
04:18PM 33.8878 -118.6086 226° Southwest 276 318 5,600 2,640 Climbing Los Angeles Center
04:19PM 33.8389 -118.5411 131° Southeast 281 323 8,800 2,460 Climbing Los Angeles Center
04:20PM 33.8956 -118.4689 47° Northeast 310 357 10,800 1,560 Climbing Los Angeles Center
04:21PM 33.9581 -118.3900 46° Northeast 360 414 12,100 1,740 Climbing Los Angeles Center
04:22PM 34.0186 -118.2833 56° Northeast 380 437 14,500 2,460 Climbing Los Angeles Center
04:23PM 34.0908 -118.1550 56° Northeast 384 442 17,300 2,220 Climbing Los Angeles Center
04:24PM 34.1550 -118.0419 56° Northeast 403 464 19,200 1,620 Climbing Los Angeles Center
04:25PM 34.2200 -117.9247 56° Northeast 416 479 21,100 1,680 Climbing Los Angeles Center
04:27PM 34.2997 -117.7828 56° Northeast 425 489 23,100 1,680 Climbing Los Angeles Center
04:28PM 34.3672 -117.6622 56° Northeast 432 497 24,700 1,560 Climbing Los Angeles Center
04:29PM 34.4439 -117.5403 53° Northeast 440 506 26,400 1,320 Climbing Los Angeles Center
04:30PM 34.5239 -117.4283 49° Northeast 441 507 27,500 1,020 Climbing Los Angeles Center
04:31PM 34.6050 -117.3128 50° Northeast 451 519 28,600 1,260 Climbing Los Angeles Center
04:32PM 34.7022 -117.1747 49° Northeast 452 520 30,200 1,260 Climbing Los Angeles Center
04:33PM 34.7825 -117.0586 50° Northeast 451 519 31,300 1,020 Climbing Los Angeles Center
04:34PM 34.8639 -116.9431 49° Northeast 453 521 32,400 960 Climbing Los Angeles Center
04:35PM 34.9458 -116.8261 49° Northeast 456 525 33,400 1,020 Climbing Los Angeles Center
04:36PM 35.0408 -116.6875 50° Northeast 449 517 34,600 720 Climbing Los Angeles Center
04:37PM 35.1197 -116.5739 50° Northeast 444 511 35,000 180 Climbing Los Angeles Center
04:38PM 35.1989 -116.4572 50° Northeast 445 512 35,000  Level Los Angeles Center
04:39PM 35.2806 -116.3425 49° Northeast 449 517 35,000  Level Los Angeles Center
04:40PM 35.3594 -116.2261 50° Northeast 446 513 35,000  Level Los Angeles Center
04:41PM 35.4361 -116.1108 51° Northeast 440 506 35,000  Level Los Angeles Center
04:42PM 35.5253 -115.9672 53° Northeast 442 509 35,000  Level Los Angeles Center
04:43PM 35.5731 -115.8247 68° East 434 499 35,000  Level Los Angeles Center
04:44PM 35.6219 -115.6886 66° East 436 502 35,000  Level Los Angeles Center
04:45PM 35.6708 -115.5531 66° East 436 502 35,000  Level Los Angeles Center
04:46PM 35.7211 -115.4178 65° Northeast 439 505 35,000  Level Los Angeles Center
04:47PM 35.7697 -115.2806 66° East 440 506 35,000  Level Los Angeles Center
04:48PM 35.8275 -115.1186 66° East 436 502 35,000  Level Los Angeles Center
04:49PM 35.8756 -114.9803 67° East 441 507 35,000  Level Los Angeles Center
04:50PM 35.9247 -114.8422 66° East 441 507 35,000  Level Los Angeles Center
04:51PM 35.9731 -114.7047 66° East 441 507 35,000  Level Los Angeles Center
04:52PM 36.0206 -114.5667 67° East 440 506 35,000  Level Los Angeles Center
04:53PM 36.0783 -114.4011 67° East 439 505 35,000  Level Los Angeles Center
04:54PM 36.1264 -114.2644 66° East 437 503 35,000  Level Los Angeles Center
04:55PM 36.1742 -114.1275 67° East 435 501 35,000  Level Los Angeles Center
04:57PM 36.2194 -113.9914 68° East 432 497 35,000  Level Los Angeles Center
04:58PM 36.2661 -113.8556 67° East 431 496 35,000  Level Los Angeles Center
04:59PM 36.3133 -113.7186 67° East 432 497 35,000  Level Los Angeles Center
05:00PM 36.3689 -113.5536 67° East 433 498 35,000  Level Los Angeles Center
05:01PM 36.4144 -113.4167 68° East 433 498 35,000  Level Los Angeles Center
05:02PM 36.4606 -113.2792 67° East 432 497 35,000  Level Los Angeles Center
05:03PM 36.5067 -113.1403 68° East 429 494 35,000  Level Los Angeles Center
05:04PM 36.5519 -113.0028 68° East 431 496 35,000  Level Los Angeles Center
05:05PM 36.5978 -112.8661 67° East 430 495 35,000  Level Los Angeles Center
05:06PM 36.6528 -112.7006 67° East 435 501 35,000  Level Los Angeles Center
05:07PM 36.6969 -112.5617 68° East 435 501 35,000  Level Los Angeles Center
05:08PM 36.7422 -112.4242 68° East 433 498 35,000  Level Los Angeles Center
05:09PM 36.7867 -112.2858 68° East 432 497 35,000  Level Los Angeles Center
05:10PM 36.8317 -112.1486 68° East 431 496 35,000  Level Los Angeles Center
05:11PM 36.8686 -112.0364 68° East 435 501 35,000  Level Denver Center
05:12PM 36.9119 -111.8986 68° East 432 497 35,000  Level Denver Center
05:13PM 36.9561 -111.7608 68° East 430 495 35,000  Level Denver Center
05:14PM 37.0108 -111.5936 68° East 433 498 35,000  Level Denver Center
05:15PM 37.0542 -111.4542 69° East 433 498 35,000  Level Denver Center
05:16PM 37.0850 -111.3453 70° East 425 489 35,000  Level Denver Center
05:17PM 37.1378 -111.1769 68° East 432 497 35,000  Level Denver Center
05:18PM 37.1819 -111.0372 68° East 433 498 35,000  Level Denver Center
05:19PM 37.2258 -110.8967 69° East 435 501 35,000  Level Denver Center
05:20PM 37.2844 -110.6992 69° East 433 498 35,000  Level Denver Center
05:21PM 37.3289 -110.5569 69° East 438 504 35,000  Level Denver Center
05:22PM 37.3717 -110.4169 69° East 434 499 35,000  Level Denver Center
05:23PM 37.4147 -110.2753 69° East 433 498 35,000  Level Denver Center
05:24PM 37.4617 -110.1186 69° East 433 498 35,000  Level Denver Center
05:25PM 37.5011 -109.9831 70° East 433 498 35,000  Level Denver Center
05:26PM 37.5481 -109.8253 69° East 430 495 35,000  Level Denver Center
05:27PM 37.5875 -109.6903 70° East 429 494 35,000  Level Denver Center
05:28PM 37.6350 -109.5308 69° East 432 497 35,000  Level Denver Center
05:29PM 37.6747 -109.3964 69° East 428 493 35,000  Level Denver Center
05:31PM 37.7136 -109.2592 70° East 432 497 35,000  Level Denver Center
05:32PM 37.7600 -109.1019 69° East 428 493 35,000  Level Denver Center
05:33PM 37.7994 -108.9644 70° East 433 498 35,000  Level Denver Center
05:34PM 37.8386 -108.8039 73° East 428 493 35,000  Level Denver Center
05:35PM 37.8989 -108.6786 59° Northeast 433 498 35,000  Level Denver Center
05:36PM 37.9700 -108.5353 58° Northeast 431 496 35,000  Level Denver Center
05:37PM 38.0203 -108.4300 59° Northeast 435 501 35,000  Level Denver Center
05:38PM 38.0981 -108.2694 58° Northeast 433 498 35,000  Level Denver Center
05:39PM 38.1589 -108.1456 58° Northeast 431 496 35,000  Level Denver Center
05:40PM 38.2292 -108.0011 58° Northeast 431 496 35,000  Level Denver Center
05:41PM 38.2886 -107.8783 58° Northeast 427 491 35,000  Level Denver Center
05:42PM 38.3389 -107.7192 68° East 438 504 35,000  Level Denver Center
05:43PM 38.3758 -107.5836 71° East 428 493 35,000  Level Denver Center
05:44PM 38.4153 -107.4197 73° East 431 496 35,000  Level Denver Center
05:45PM 38.4331 -107.2742 81° East 435 501 35,000  Level Denver Center
05:46PM 38.4531 -107.1108 81° East 433 498 35,000  Level Denver Center
05:47PM 38.4706 -106.9592 82° East 433 498 35,000  Level Denver Center
05:48PM 38.4889 -106.8083 81° East 433 498 35,000  Level Denver Center
05:49PM 38.5061 -106.6572 82° East 431 496 35,000  Level Denver Center
05:50PM 38.5231 -106.5061 82° East 431 496 35,000  Level Denver Center
05:51PM 38.5406 -106.3567 81° East 428 493 35,000  Level Denver Center
05:52PM 38.5631 -106.1706 81° East 433 498 35,000  Level Denver Center
05:53PM 38.5786 -106.0253 82° East 433 498 35,000  Level Denver Center
05:54PM 38.5992 -105.8322 82° East 431 496 35,000  Level Denver Center
05:55PM 38.6156 -105.6864 82° East 433 498 35,000  Level Denver Center
05:57PM 38.6342 -105.5161 82° East 433 498 35,000  Level Denver Center
05:58PM 38.6500 -105.3722 82° East 428 493 35,000  Level Denver Center
05:59PM 38.6650 -105.2267 82° East 431 496 35,000  Level Denver Center
06:00PM 38.6831 -105.0592 82° East 427 491 35,000  Level Denver Center
06:01PM 38.6978 -104.9158 82° East 426 490 35,000  Level Denver Center
06:02PM 38.7139 -104.7469 83° East 426 490 35,000  Level Denver Center
06:03PM 38.7286 -104.6028 82° East 427 491 35,000  Level Denver Center
06:04PM 38.7461 -104.4333 82° East 429 494 35,000  Level Denver Center
06:05PM 38.7592 -104.2881 83° East 428 493 35,000  Level Denver Center
06:06PM 38.7708 -104.1658 83° East 430 495 35,000  Level Denver Center
06:07PM 38.7892 -103.9744 83° East 427 491 35,000  Level Denver Center
06:08PM 38.8033 -103.8275 83° East 430 495 35,000  Level Denver Center
06:09PM 38.8183 -103.6561 84° East 432 497 35,000  Level Denver Center
06:10PM 38.8311 -103.5108 84° East 429 494 35,000  Level Denver Center
06:11PM 38.8461 -103.3414 83° East 428 493 35,000  Level Denver Center
06:12PM 38.8594 -103.1964 83° East 428 493 35,000  Level Denver Center
06:13PM 38.8736 -103.0253 84° East 430 495 35,000  Level Denver Center
06:14PM 38.8864 -102.8783 84° East 431 496 35,000  Level Denver Center
06:15PM 38.8989 -102.7283 84° East 430 495 35,000  Level Denver Center
06:16PM 38.9128 -102.5569 84° East 432 497 35,000  Level Denver Center
06:17PM 38.9239 -102.4103 84° East 431 496 35,000  Level Denver Center
06:18PM 38.9383 -102.2389 84° East 432 497 35,000  Level Denver Center
06:19PM 38.9500 -102.0928 84° East 430 495 35,000  Level Denver Center
06:20PM 38.9644 -101.9217 84° East 430 495 35,000  Level Denver Center
06:21PM 38.9744 -101.7722 85° East 436 502 35,000  Level Denver Center
06:22PM 38.9853 -101.6228 85° East 438 504 35,000  Level Denver Center
06:23PM 38.9969 -101.4714 84° East 443 510 35,000  Level Denver Center
06:24PM 39.0083 -101.2972 85° East 439 505 35,000  Level Denver Center
06:25PM 39.0208 -101.1203 85° East 443 510 35,000  Level Denver Center
06:26PM 39.0311 -100.9736 85° East 443 510 35,000  Level Denver Center
06:27PM 39.0436 -100.8014 85° East 436 502 35,000  Level Denver Center
06:29PM 39.0528 -100.6500 85° East 441 507 35,000  Level Denver Center
06:30PM 39.0636 -100.4753 85° East 441 507 35,000  Level Denver Center
06:31PM 39.0736 -100.3236 85° East 445 512 35,000  Level Denver Center
06:32PM 39.0842 -100.1458 86° East 448 516 35,000  Level Denver Center
06:33PM 39.0936 -99.9883 86° East 444 511 35,000  Level Denver Center
06:34PM 39.1028 -99.8381 85° East 440 506 35,000  Level Denver Center
06:35PM 39.1125 -99.6614 86° East 440 506 35,000  Level Denver Center
06:36PM 39.1211 -99.5094 86° East 444 511 35,000  Level Denver Center
06:37PM 39.1306 -99.3361 86° East 436 502 35,000  Level Denver Center
06:38PM 39.1383 -99.1853 86° East 440 506 35,000  Level Denver Center
06:39PM 39.1458 -99.0586 86° East 444 511 35,000  Level Denver Center
06:40PM 39.1556 -98.8467 87° East 442 509 35,000  Level Denver Center
06:41PM 39.1633 -98.6892 86° East 441 507 35,000  Level Denver Center
06:42PM 39.1703 -98.5311 87° East 442 509 35,000  Level Denver Center
06:43PM 39.1769 -98.4042 86° East 445 512 35,000  Level Denver Center
06:44PM 39.1869 -98.1697 87° East 443 510 35,000  Level Kansas City Center
06:45PM 39.1944 -98.0114 86° East 443 510 35,000  Level Kansas City Center
06:46PM 39.2011 -97.8533 87° East 440 506 35,000  Level Kansas City Center
06:47PM 39.2061 -97.7039 87° East 438 504 35,000  Level Kansas City Center
06:48PM 39.2133 -97.5272 87° East 441 507 35,000  Level Kansas City Center
06:49PM 39.2192 -97.3761 87° East 441 507 35,000  Level Kansas City Center
06:50PM 39.2258 -97.1986 87° East 442 509 35,000  Level Kansas City Center
06:51PM 39.2311 -97.0483 87° East 439 505 35,000  Level Kansas City Center
06:52PM 39.2372 -96.8714 87° East 442 509 35,000  Level Kansas City Center
06:53PM 39.2428 -96.7194 87° East 443 510 35,000  Level Kansas City Center
06:54PM 39.2481 -96.5411 88° East 445 512 35,000  Level Kansas City Center
06:56PM 39.2503 -96.3861 89° East 450 518 35,000  Level Kansas City Center
06:57PM 39.2550 -96.2092 88° East 443 510 35,000  Level Kansas City Center
06:58PM 39.2669 -96.0581 84° East 442 509 35,000  Level Kansas City Center
06:59PM 39.2831 -95.9075 82° East 441 507 35,000  Level Kansas City Center
07:00PM 39.3003 -95.7292 83° East 450 518 35,000  Level Kansas City Center
07:01PM 39.3144 -95.5789 83° East 440 506 35,000  Level Kansas City Center
07:02PM 39.3317 -95.3947 83° East 445 512 35,000  Level Kansas City Center
07:03PM 39.3469 -95.2361 83° East 445 512 35,000  Level Kansas City Center
07:04PM 39.3592 -95.0908 84° East 443 510 35,000  Level Kansas City Center
07:05PM 39.3750 -94.9133 83° East 442 509 35,000  Level Kansas City Center
07:06PM 39.3892 -94.7625 83° East 442 509 35,000  Level Kansas City Center
07:07PM 39.4050 -94.5831 83° East 449 517 35,000  Level Kansas City Center
07:08PM 39.4175 -94.4294 84° East 443 510 35,000  Level Kansas City Center
07:09PM 39.4325 -94.2547 84° East 444 511 35,000  Level Kansas City Center
07:10PM 39.4444 -94.1028 84° East 444 511 35,000  Level Kansas City Center
07:11PM 39.4592 -93.9258 84° East 444 511 35,000  Level Kansas City Center
07:12PM 39.4706 -93.7739 84° East 444 511 35,000  Level Kansas City Center
07:13PM 39.4847 -93.6108 84° East 446 513 35,000  Level Kansas City Center
07:14PM 39.4958 -93.4539 85° East 444 511 35,000  Level Kansas City Center
07:15PM 39.5081 -93.2961 84° East 445 512 35,000  Level Kansas City Center
07:16PM 39.5217 -93.1067 85° East 445 512 35,000  Level Kansas City Center
07:17PM 39.5319 -92.9486 85° East 445 512 35,000  Level Kansas City Center
07:18PM 39.5439 -92.7919 84° East 445 512 35,000  Level Kansas City Center
07:19PM 39.5544 -92.6350 85° East 444 511 35,000  Level Kansas City Center
07:20PM 39.5653 -92.4775 85° East 444 511 35,000  Level Kansas City Center
07:21PM 39.5775 -92.2892 85° East 444 511 35,000  Level Kansas City Center
07:22PM 39.5878 -92.1306 85° East 445 512 35,000  Level Kansas City Center
07:23PM 39.5972 -91.9736 85° East 444 511 35,000  Level Kansas City Center
07:24PM 39.6069 -91.8153 85° East 445 512 35,000  Level Kansas City Center
07:25PM 39.6183 -91.6242 86° East 447 514 35,000  Level Kansas City Center
07:27PM 39.6286 -91.4650 85° East 448 516 35,000  Level Kansas City Center
07:28PM 39.6392 -91.2903 85° East 449 517 35,000  Level Kansas City Center
07:29PM 39.6486 -91.1278 86° East 450 518 35,000  Level Kansas City Center
07:30PM 39.6572 -90.9653 86° East 451 519 35,000  Level Kansas City Center
07:31PM 39.6653 -90.8022 86° East 452 520 35,000  Level Kansas City Center
07:32PM 39.6736 -90.6367 86° East 457 526 35,000  Level Kansas City Center
07:33PM 39.6833 -90.4725 86° East 457 526 35,000  Level Kansas City Center
07:34PM 39.6903 -90.3075 87° East 456 525 35,000  Level Kansas City Center
07:35PM 39.7000 -90.1125 86° East 454 522 35,000  Level Kansas City Center
07:36PM 39.7075 -89.9483 87° East 453 521 35,000  Level Kansas City Center
07:37PM 39.7139 -89.7856 87° East 452 520 35,000  Level Kansas City Center
07:38PM 39.7214 -89.6158 87° East 450 518 35,000  Level Kansas City Center
07:39PM 39.7286 -89.4536 87° East 451 519 35,000  Level Kansas City Center
07:40PM 39.7350 -89.2922 87° East 450 518 35,000  Level Kansas City Center
07:41PM 39.7417 -89.1308 87° East 450 518 35,000  Level Kansas City Center
07:42PM 39.7489 -88.9367 87° East 451 519 35,000  Level Kansas City Center
07:43PM 39.7536 -88.7742 88° East 452 520 35,000  Level Kansas City Center
07:44PM 39.7603 -88.6122 87° East 450 518 35,000  Level Kansas City Center
07:45PM 39.7669 -88.4506 87° East 450 518 35,000  Level Kansas City Center
07:46PM 39.7731 -88.2883 87° East 450 518 35,000  Level Kansas City Center
07:47PM 39.7781 -88.1053 88° East 449 517 35,000  Level Kansas City Center
07:47PM 39.7769 -88.0558 92° East 447 514 35,000  Level Indianapolis Center
07:49PM 39.7825 -87.8958 87° East 446 513 35,000  Level Indianapolis Center
07:50PM 39.7869 -87.7356 88° East 446 513 35,000  Level Indianapolis Center
07:51PM 39.7897 -87.5747 89° East 446 513 35,000  Level Indianapolis Center
07:52PM 39.7953 -87.4144 87° East 445 512 35,000  Level Indianapolis Center
07:53PM 39.7983 -87.2542 89° East 445 512 35,000  Level Indianapolis Center
07:54PM 39.8025 -87.0947 88° East 445 512 35,000  Level Indianapolis Center
07:55PM 39.8061 -86.9019 89° East 445 512 35,000  Level Indianapolis Center
07:56PM 39.8089 -86.7417 89° East 445 512 35,000  Level Indianapolis Center
07:57PM 39.8114 -86.5808 89° East 446 513 35,000  Level Indianapolis Center
07:58PM 39.8144 -86.4183 89° East 447 514 35,000  Level Indianapolis Center
07:59PM 39.8347 -86.2722 80° East 439 505 35,000  Level Indianapolis Center
08:00PM 39.8703 -86.1081 74° East 427 491 35,000  Level Indianapolis Center
08:01PM 39.9017 -85.9589 75° East 427 491 35,000  Level Indianapolis Center
08:02PM 39.9211 -85.8044 81° East 434 499 35,000  Level Indianapolis Center
08:03PM 39.9278 -85.6442 87° East 443 510 35,000  Level Indianapolis Center
08:04PM 39.9325 -85.4842 88° East 443 510 35,000  Level Indianapolis Center
08:05PM 39.9394 -85.3250 87° East 442 509 35,000  Level Indianapolis Center
08:06PM 39.9453 -85.1342 88° East 441 507 35,000  Level Indianapolis Center
08:07PM 39.9511 -84.9764 87° East 439 505 35,000  Level Indianapolis Center
08:08PM 39.9556 -84.8303 88° East 437 503 35,000  Level Indianapolis Center
08:09PM 39.9622 -84.6450 87° East 436 502 35,000  Level Indianapolis Center
08:10PM 39.9667 -84.4872 88° East 432 497 35,000  Level Indianapolis Center
08:11PM 39.9714 -84.3281 88° East 435 501 35,000  Level Indianapolis Center
08:12PM 39.9764 -84.1700 88° East 433 498 35,000  Level Indianapolis Center
08:13PM 39.9794 -84.0119 89° East 433 498 35,000  Level Indianapolis Center
08:14PM 39.9833 -83.8544 88° East 431 496 35,000  Level Indianapolis Center
08:15PM 40.0047 -83.7044 79° East 413 475 35,000  Level Indianapolis Center
08:16PM 40.0158 -83.5475 85° East 428 493 35,000  Level Indianapolis Center
08:17PM 40.0172 -83.3850 89° East 436 502 35,000  Level Indianapolis Center
08:18PM 40.0181 -83.2244 90° East 435 501 35,000  Level Indianapolis Center
08:19PM 40.0194 -83.0661 89° East 432 497 35,000  Level Indianapolis Center
08:20PM 40.0211 -82.9086 89° East 430 495 35,000  Level Indianapolis Center
08:21PM 40.0214 -82.7519 90° East 428 493 35,000  Level Indianapolis Center
08:22PM 40.0222 -82.5983 90° East 422 486 35,000  Level Indianapolis Center
08:23PM 40.0233 -82.4447 89° East 420 483 35,000  Level Indianapolis Center
08:24PM 40.0233 -82.2947 90° East 412 474 35,000  Level Indianapolis Center
08:25PM 40.0250 -82.1197 89° East 412 474 35,000  Level Indianapolis Center
08:26PM 40.0578 -81.9900 72° East 377 434 35,000  Level Indianapolis Center
08:28PM 40.0881 -81.8592 73° East 374 430 35,000  Level Indianapolis Center
08:29PM 40.1156 -81.7403 73° East 375 432 35,000  Level Indianapolis Center
08:30PM 40.1536 -81.5886 72° East 374 430 35,000  Level Indianapolis Center
08:31PM 40.1825 -81.4528 74° East 372 428 35,000  Level Cleveland Center
08:32PM 40.1461 -81.3000 107° East 400 460 35,000  Level Cleveland Center
08:33PM 40.1053 -81.1422 109° East 422 486 35,000  Level Cleveland Center
08:34PM 40.0686 -80.9928 108° East 434 499 35,000  Level Cleveland Center
08:35PM 40.0253 -80.8325 109° East 447 514 35,000  Level Cleveland Center
08:36PM 39.9900 -80.6753 106° East 447 514 35,000  Level Cleveland Center
08:37PM 39.8900 -80.5506 136° Southeast 447 514 35,000  Level Cleveland Center
08:38PM 39.7483 -80.4886 161° South 484 557 35,000  Level Cleveland Center
08:39PM 39.5939 -80.4053 157° South 508 585 35,000  Level Cleveland Center
08:40PM 39.5394 -80.2572 115° Southeast 462 532 35,000 -480 Level Cleveland Center
08:41PM 39.5533 -80.1067 83° East 393 452 34,100 -900 Descending Cleveland Center
08:42PM 39.5672 -79.9611 83° East 387 445 33,200 -840 Descending Cleveland Center
08:43PM 39.5850 -79.8072 81° East 401 461 32,500 -780 Descending Cleveland Center
08:43PM 39.5972 -79.7175 80° East 401 461 31,900 -900 Descending Washington Center
08:44PM 39.6128 -79.5675 82° East 401 461 31,000 -1,020 Descending Washington Center
08:45PM 39.6278 -79.4228 82° East 406 467 29,900 -1,560 Descending Washington Center
08:46PM 39.6447 -79.2783 81° East 406 467 28,000 -2,220 Descending Washington Center
08:47PM 39.6594 -79.1361 82° East 406 467 25,600 -1,500 Descending Washington Center
08:48PM 39.6431 -78.9844 98° East 411 473 25,000 -360 Descending Washington Center
08:49PM 39.6075 -78.8372 107° East 429 494 25,000 -840 Level Washington Center
08:50PM 39.5719 -78.6822 107° East 434 499 23,400 -1,860 Descending Washington Center
08:51PM 39.5403 -78.5328 105° East 434 499 21,300 -2,160 Descending Washington Center
08:52PM 39.5083 -78.3917 106° East 426 490 19,100 -2,100 Descending Washington Center
08:53PM 39.4781 -78.2561 106° East 406 467 17,100 -2,100 Descending Washington Center
08:54PM 39.4475 -78.1258 107° East 393 452 15,100 -1,320 Descending Washington Center
08:55PM 39.4292 -77.9964 100° East 370 426 14,600 -840 Descending Washington Center
08:56PM 39.4317 -77.8647 89° East 365 420 13,500 -1,080 Descending Washington Center
08:57PM 39.4364 -77.7331 87° East 365 420 12,500 -720 Descending Washington Center
08:58PM 39.4386 -77.6042 89° East 365 420 12,100 -720 Descending Washington Center
08:59PM 39.4406 -77.4753 89° East 365 420 11,100 -540 Descending Washington Center
09:00PM 39.4467 -77.3492 86° East 365 420 11,100  Level Washington Center
09:01PM 39.4667 -77.2667 73° East 360 414 11,100 -180 Level Potomac TRACON
09:02PM 39.4667 -77.1500 90° East 341 392 10,900 -660 Descending Potomac TRACON
09:03PM 39.4833 -77.0333 79° East 309 356 9,800 -1,140 Descending Potomac TRACON
09:04PM 39.5000 -76.9333 78° East 302 348 8,800 -1,080 Descending Potomac TRACON
09:05PM 39.5000 -76.8333 90° East 301 346 7,800 -840 Descending Potomac TRACON
09:06PM 39.5167 -76.7167 79° East 292 336 7,100 -360 Descending Potomac TRACON
09:07PM 39.5333 -76.6167 78° East 289 333 7,100 -300 Level Potomac TRACON
09:08PM 39.5167 -76.5167 102° East 295 339 6,600 -840 Descending Potomac TRACON
09:09PM 39.4833 -76.4333 117° Southeast 293 337 5,500 -1,140 Descending Potomac TRACON
09:10PM 39.4000 -76.4167 171° South 270 311 4,500 -720 Descending Potomac TRACON
09:11PM 39.3333 -76.4167 180° South 252 290 4,100 -240 Descending Potomac TRACON
09:12PM 39.2667 -76.4000 169° South 236 272 4,100  Level Potomac TRACON
09:13PM 39.2000 -76.4000 180° South 238 274 4,100  Level Potomac TRACON
09:14PM 39.1333 -76.4000 180° South 236 272 4,100  Level Potomac TRACON
09:15PM 39.0833 -76.4333 207° Southwest 237 273 4,100 -60 Level Potomac TRACON
09:16PM 39.0333 -76.4667 207° Southwest 210 242 4,000 -540 Descending Potomac TRACON
09:17PM 39.0167 -76.5167 247° West 188 216 3,100 -540 Descending Potomac TRACON
09:18PM 39.0500 -76.5500 322° Northwest 158 182 3,000 -480 Descending Potomac TRACON
09:19PM 39.0833 -76.5833 322° Northwest 157 181 2,200 -840 Descending Potomac TRACON